createdAt,value
2018-09-21T00:01:28.920Z,55.62
2018-09-21T00:03:54.905Z,55.05
2018-09-21T00:06:20.911Z,56.08
2018-09-21T00:08:46.999Z,56.27
2018-09-21T00:11:12.946Z,55.67
2018-09-21T00:13:38.912Z,56.70
2018-09-21T00:16:04.860Z,55.23
2018-09-21T00:18:30.807Z,55.63
2018-09-21T00:20:56.763Z,55.58
2018-09-21T00:23:22.711Z,55.06
2018-09-21T00:25:48.651Z,54.82
2018-09-21T00:28:14.639Z,55.31
2018-09-21T00:30:40.591Z,54.85
2018-09-21T00:33:06.568Z,55.65
2018-09-21T00:35:32.570Z,55.64
2018-09-21T00:37:58.521Z,55.57
2018-09-21T00:40:24.470Z,55.04
2018-09-21T00:42:50.524Z,55.34
2018-09-21T00:45:16.472Z,55.48
2018-09-21T00:47:42.425Z,55.70
2018-09-21T00:50:08.404Z,56.00
2018-09-21T00:52:34.362Z,55.65
2018-09-21T00:55:00.320Z,56.05
2018-09-21T00:57:26.277Z,55.55
2018-09-21T00:59:52.323Z,55.19
2018-09-21T01:02:18.269Z,55.84
2018-09-21T01:04:44.216Z,55.82
2018-09-21T01:07:10.152Z,55.41
2018-09-21T01:09:36.141Z,55.12
2018-09-21T01:12:02.091Z,55.29
2018-09-21T01:14:28.044Z,55.38
2018-09-21T01:16:54.040Z,55.69
2018-09-21T01:19:19.996Z,55.44
2018-09-21T01:21:45.955Z,56.69
2018-09-21T01:24:11.911Z,56.41
2018-09-21T01:26:38.016Z,55.29
2018-09-21T01:29:03.969Z,55.42
2018-09-21T01:31:29.912Z,56.15
2018-09-21T01:33:55.858Z,55.68
2018-09-21T01:36:21.812Z,56.39
2018-09-21T01:38:47.784Z,55.39
2018-09-21T01:41:13.817Z,56.30
2018-09-21T01:43:39.789Z,56.33
2018-09-21T01:46:05.740Z,55.67
2018-09-21T01:48:31.746Z,56.35
2018-09-21T01:50:57.799Z,56.17
2018-09-21T01:53:23.766Z,55.53
2018-09-21T01:55:49.716Z,55.80
2018-09-21T01:58:15.666Z,56.42
2018-09-21T02:00:41.612Z,56.40
2018-09-21T02:03:07.584Z,55.78
2018-09-21T02:05:33.536Z,56.43
2018-09-21T02:07:59.483Z,56.56
2018-09-21T02:10:25.528Z,55.66
2018-09-21T02:12:51.559Z,55.69
2018-09-21T02:15:17.516Z,55.70
2018-09-21T02:17:43.483Z,56.25
2018-09-21T02:20:09.424Z,55.97
2018-09-21T02:22:35.371Z,56.53
2018-09-21T02:25:01.318Z,56.50
2018-09-21T02:27:27.285Z,56.79
2018-09-21T02:29:53.248Z,56.47
2018-09-21T02:32:19.224Z,55.65
2018-09-21T02:34:45.265Z,56.15
2018-09-21T02:37:11.234Z,56.56
2018-09-21T02:39:37.180Z,56.95
2018-09-21T02:42:03.144Z,56.95
2018-09-21T02:44:29.092Z,55.95
2018-09-21T02:46:55.030Z,57.11
2018-09-21T02:49:21.447Z,56.49
2018-09-21T02:51:47.403Z,56.83
2018-09-21T02:54:13.446Z,56.38
2018-09-21T02:56:39.393Z,56.59
2018-09-21T02:59:05.372Z,56.04
2018-09-21T03:01:31.320Z,56.47
2018-09-21T03:03:57.659Z,56.50
2018-09-21T03:06:23.611Z,55.94
2018-09-21T03:08:49.586Z,56.33
2018-09-21T03:11:15.557Z,56.61
2018-09-21T03:13:41.572Z,56.85
2018-09-21T03:16:07.749Z,56.73
2018-09-21T03:18:33.702Z,56.25
2018-09-21T03:20:59.680Z,56.99
2018-09-21T03:23:25.638Z,56.37
2018-09-21T03:25:51.603Z,57.18
2018-09-21T03:28:17.554Z,56.32
2018-09-21T03:30:43.572Z,56.76
2018-09-21T03:33:09.520Z,57.52
2018-09-21T03:35:35.483Z,57.47
2018-09-21T03:38:01.428Z,56.54
2018-09-21T03:40:27.380Z,57.37
2018-09-21T03:42:53.331Z,55.99
2018-09-21T03:45:19.336Z,57.29
2018-09-21T03:47:45.364Z,56.62
2018-09-21T03:50:11.316Z,56.60
2018-09-21T03:52:37.321Z,56.68
2018-09-21T03:55:03.509Z,56.22
2018-09-21T03:57:29.571Z,56.04
2018-09-21T03:59:55.605Z,57.15
2018-09-21T04:02:21.562Z,56.39
2018-09-21T04:04:47.503Z,56.73
2018-09-21T04:07:13.460Z,56.26
2018-09-21T04:09:39.392Z,56.59
2018-09-21T04:12:05.340Z,57.39
2018-09-21T04:14:31.390Z,57.34
2018-09-21T04:16:57.332Z,56.73
2018-09-21T04:19:23.292Z,56.81
2018-09-21T04:21:49.241Z,56.90
2018-09-21T04:24:15.386Z,56.96
2018-09-21T04:26:41.453Z,56.23
2018-09-21T04:29:07.446Z,57.00
2018-09-21T04:31:33.408Z,56.49
2018-09-21T04:33:59.403Z,56.94
2018-09-21T04:36:25.491Z,56.90
2018-09-21T04:38:51.441Z,57.28
2018-09-21T04:41:17.385Z,57.25
2018-09-21T04:43:43.344Z,56.78
2018-09-21T04:46:09.315Z,57.58
2018-09-21T04:48:35.255Z,57.25
2018-09-21T04:51:01.254Z,57.18
2018-09-21T04:53:27.195Z,57.61
2018-09-21T04:55:53.147Z,56.97
2018-09-21T04:58:19.108Z,57.56
2018-09-21T05:00:45.090Z,56.91
2018-09-21T05:03:11.047Z,57.99
2018-09-21T05:05:37.067Z,58.46
2018-09-21T05:08:03.013Z,57.16
2018-09-21T05:10:28.964Z,57.51
2018-09-21T05:12:55.073Z,58.37
2018-09-21T05:15:21.035Z,57.25
2018-09-21T05:17:47.009Z,57.31
2018-09-21T05:20:12.947Z,57.14
2018-09-21T05:22:38.934Z,58.02
2018-09-21T05:25:04.871Z,58.02
2018-09-21T05:27:31.015Z,57.14
2018-09-21T05:29:56.900Z,57.72
2018-09-21T05:32:22.835Z,57.44
2018-09-21T05:34:48.901Z,57.78
2018-09-21T05:37:14.824Z,58.33
2018-09-21T05:39:40.816Z,57.94
2018-09-21T05:42:06.784Z,58.58
2018-09-21T05:44:32.723Z,58.51
2018-09-21T05:46:58.723Z,58.75
2018-09-21T05:49:24.631Z,58.73
2018-09-21T05:51:50.584Z,59.31
2018-09-21T05:54:16.546Z,58.73
2018-09-21T05:56:42.515Z,58.57
2018-09-21T05:59:08.489Z,58.34
2018-09-21T06:01:34.443Z,59.21
2018-09-21T06:04:00.913Z,58.32
2018-09-21T06:06:26.888Z,58.47
2018-09-21T06:08:52.896Z,59.15
2018-09-21T06:11:18.856Z,58.36
2018-09-21T06:13:44.882Z,58.72
2018-09-21T06:16:10.743Z,59.28
2018-09-21T06:18:36.837Z,58.89
2018-09-21T06:21:02.874Z,59.21
2018-09-21T06:23:28.963Z,58.88
2018-09-21T06:25:54.931Z,59.03
2018-09-21T06:28:20.927Z,59.35
2018-09-21T06:30:46.884Z,58.36
2018-09-21T06:33:12.847Z,58.61
2018-09-21T06:35:38.787Z,57.92
2018-09-21T06:38:04.736Z,58.33
2018-09-21T06:40:30.680Z,59.15
2018-09-21T06:42:56.628Z,59.31
2018-09-21T06:45:22.583Z,59.83
2018-09-21T06:47:48.527Z,59.21
2018-09-21T06:50:14.503Z,59.15
2018-09-21T06:52:40.464Z,58.52
2018-09-21T06:55:06.405Z,58.15
2018-09-21T06:57:32.384Z,58.78
2018-09-21T06:59:58.412Z,59.03
2018-09-21T07:02:24.354Z,59.29
2018-09-21T07:04:50.292Z,59.01
2018-09-21T07:07:16.244Z,59.36
2018-09-21T07:09:42.194Z,58.94
2018-09-21T07:12:08.137Z,59.49
2018-09-21T07:14:34.222Z,59.00
2018-09-21T07:17:00.155Z,59.62
2018-09-21T07:19:26.109Z,59.23
2018-09-21T07:21:52.093Z,59.95
2018-09-21T07:24:18.079Z,59.04
2018-09-21T07:26:44.003Z,59.74
2018-09-21T07:29:10.072Z,59.90
2018-09-21T07:31:36.019Z,59.06
2018-09-21T07:34:01.962Z,59.30
2018-09-21T07:36:27.923Z,59.81
2018-09-21T07:38:53.867Z,58.75
2018-09-21T07:41:19.826Z,59.12
2018-09-21T07:43:45.847Z,58.97
2018-09-21T07:46:11.806Z,58.92
2018-09-21T07:48:37.771Z,59.95
2018-09-21T07:51:03.729Z,59.06
2018-09-21T07:53:29.701Z,59.96
2018-09-21T07:55:55.635Z,58.75
2018-09-21T07:58:21.588Z,58.73
2018-09-21T08:00:47.536Z,59.19
2018-09-21T08:03:13.483Z,58.78
2018-09-21T08:05:39.430Z,59.57
2018-09-21T08:08:05.383Z,59.78
2018-09-21T08:10:31.334Z,59.93
2018-09-21T08:12:57.326Z,58.85
2018-09-21T08:15:23.220Z,59.65
2018-09-21T08:17:49.242Z,58.31
2018-09-21T08:20:15.216Z,59.12
2018-09-21T08:22:41.156Z,59.67
2018-09-21T08:25:07.207Z,59.23
2018-09-21T08:27:33.087Z,60.07
2018-09-21T08:29:59.121Z,58.89
2018-09-21T08:32:25.071Z,59.69
2018-09-21T08:34:51.064Z,59.01
2018-09-21T08:37:17.045Z,60.04
2018-09-21T08:39:42.968Z,60.15
2018-09-21T08:42:08.924Z,60.13
2018-09-21T08:44:34.868Z,59.92
2018-09-21T08:47:00.816Z,59.50
2018-09-21T08:49:26.756Z,59.29
2018-09-21T08:51:52.708Z,59.50
2018-09-21T08:54:18.661Z,59.44
2018-09-21T08:56:44.605Z,59.41
2018-09-21T08:59:10.560Z,59.03
2018-09-21T09:01:36.502Z,58.93
2018-09-21T09:04:02.478Z,61.00
2018-09-21T09:06:28.432Z,60.94
2018-09-21T09:08:54.391Z,60.42
2018-09-21T09:11:20.336Z,60.32
2018-09-21T09:13:46.433Z,59.94
2018-09-21T09:16:12.384Z,60.02
2018-09-21T09:18:38.347Z,59.34
2018-09-21T09:21:04.320Z,59.47
2018-09-21T09:23:30.284Z,59.93
2018-09-21T09:25:56.267Z,58.77
2018-09-21T09:28:22.271Z,59.47
2018-09-21T09:30:48.231Z,58.80
2018-09-21T09:33:14.203Z,58.87
2018-09-21T09:35:40.177Z,58.81
2018-09-21T09:38:06.132Z,59.12
2018-09-21T09:40:32.117Z,58.13
2018-09-21T09:42:58.078Z,58.61
2018-09-21T09:45:24.020Z,58.37
2018-09-21T09:47:49.965Z,57.93
2018-09-21T09:50:15.980Z,58.13
2018-09-21T09:52:41.936Z,58.65
2018-09-21T09:55:07.888Z,58.80
2018-09-21T09:57:33.907Z,59.11
2018-09-21T09:59:59.838Z,59.13
2018-09-21T10:02:25.791Z,58.98
2018-09-21T10:04:51.750Z,59.10
2018-09-21T10:07:17.734Z,58.57
2018-09-21T10:09:43.675Z,58.92
2018-09-21T10:12:09.988Z,58.65
2018-09-21T10:14:35.935Z,58.28
2018-09-21T10:17:02.008Z,58.96
2018-09-21T10:19:27.999Z,58.74
2018-09-21T10:21:53.949Z,58.02
2018-09-21T10:24:19.892Z,58.33
2018-09-21T10:26:45.926Z,57.92
2018-09-21T10:29:11.827Z,57.86
2018-09-21T10:31:37.856Z,58.26
2018-09-21T10:34:03.854Z,58.25
2018-09-21T10:36:29.814Z,57.74
2018-09-21T10:38:55.751Z,58.33
2018-09-21T10:41:21.711Z,57.89
2018-09-21T10:43:47.663Z,57.59
2018-09-21T10:46:13.636Z,58.17
2018-09-21T10:48:39.588Z,58.01
2018-09-21T10:51:05.548Z,57.41
2018-09-21T10:53:31.548Z,57.82
2018-09-21T10:55:57.532Z,57.38
2018-09-21T10:58:23.474Z,57.98
2018-09-21T11:00:49.553Z,57.90
2018-09-21T11:03:15.523Z,57.62
2018-09-21T11:05:41.463Z,57.60
2018-09-21T11:08:07.471Z,57.82
2018-09-21T11:10:33.478Z,56.19
2018-09-21T11:12:59.669Z,56.23
2018-09-21T11:15:25.619Z,56.46
2018-09-21T11:17:51.597Z,54.98
2018-09-21T11:20:17.542Z,56.14
2018-09-21T11:22:43.601Z,55.54
2018-09-21T11:25:09.728Z,54.79
2018-09-21T11:27:35.764Z,54.70
2018-09-21T11:30:01.783Z,55.20
2018-09-21T11:32:27.743Z,56.21
2018-09-21T11:34:53.730Z,55.15
2018-09-21T11:37:19.685Z,55.06
2018-09-21T11:39:45.651Z,54.92
2018-09-21T11:42:11.768Z,54.25
2018-09-21T11:44:37.729Z,56.15
2018-09-21T11:47:03.726Z,55.18
2018-09-21T11:49:29.668Z,54.88
2018-09-21T11:51:55.613Z,55.60
2018-09-21T11:54:21.661Z,55.23
2018-09-21T11:56:47.605Z,55.16
2018-09-21T11:59:13.568Z,54.27
2018-09-21T12:01:39.553Z,54.00
2018-09-21T12:04:05.575Z,53.64
2018-09-21T12:06:31.516Z,53.23
2018-09-21T12:08:57.477Z,52.43
2018-09-21T12:11:23.434Z,52.48
2018-09-21T12:13:49.406Z,52.26
2018-09-21T12:16:15.350Z,52.79
2018-09-21T12:18:41.338Z,52.04
2018-09-21T12:21:07.290Z,52.56
2018-09-21T12:23:33.260Z,52.47
2018-09-21T12:25:59.201Z,52.30
2018-09-21T12:28:25.178Z,51.98
2018-09-21T12:30:51.126Z,51.21
2018-09-21T12:33:17.083Z,51.26
2018-09-21T12:35:43.057Z,51.36
2018-09-21T12:38:09.039Z,50.37
2018-09-21T12:40:35.008Z,50.80
2018-09-21T12:43:01.023Z,50.60
2018-09-21T12:45:26.985Z,49.36
2018-09-21T12:47:52.933Z,49.17
2018-09-21T12:50:18.888Z,49.36
2018-09-21T12:52:44.844Z,48.19
2018-09-21T12:55:10.855Z,48.21
2018-09-21T12:57:36.844Z,47.70
2018-09-21T13:00:02.768Z,48.03
2018-09-21T13:02:28.744Z,48.76
2018-09-21T13:04:54.712Z,48.58
2018-09-21T13:07:20.648Z,48.34
2018-09-21T13:09:46.593Z,48.75
2018-09-21T13:12:12.675Z,49.85
2018-09-21T13:14:38.656Z,50.58
2018-09-21T13:17:04.612Z,51.97
2018-09-21T13:19:30.564Z,52.48
2018-09-21T13:21:56.519Z,52.68
2018-09-21T13:24:22.487Z,53.10
2018-09-21T13:26:48.580Z,53.16
2018-09-21T13:29:14.492Z,53.25
2018-09-21T13:31:40.632Z,52.46
2018-09-21T13:34:06.624Z,53.42
2018-09-21T13:36:32.586Z,53.38
2018-09-21T13:38:58.572Z,52.76
2018-09-21T13:41:24.548Z,53.47
2018-09-21T13:43:50.493Z,52.71
2018-09-21T13:46:16.468Z,52.81
2018-09-21T13:48:42.432Z,53.18
2018-09-21T13:51:08.399Z,52.99
2018-09-21T13:53:34.382Z,52.84
2018-09-21T13:56:00.316Z,53.45
2018-09-21T13:58:26.276Z,52.31
2018-09-21T14:00:52.245Z,52.33
2018-09-21T14:03:18.303Z,52.54
2018-09-21T14:05:44.249Z,52.94
2018-09-21T14:08:10.195Z,52.67
2018-09-21T14:10:36.153Z,51.84
2018-09-21T14:13:02.154Z,52.65
2018-09-21T14:15:28.129Z,52.65
2018-09-21T14:17:54.087Z,52.08
2018-09-21T14:20:20.052Z,51.25
2018-09-21T14:22:46.011Z,51.39
2018-09-21T14:25:12.008Z,50.74
2018-09-21T14:27:37.972Z,51.27
2018-09-21T14:30:03.921Z,51.68
2018-09-21T14:32:29.975Z,51.60
2018-09-21T14:34:55.929Z,51.10
2018-09-21T14:37:21.902Z,50.84
2018-09-21T14:39:47.982Z,50.61
2018-09-21T14:42:14.053Z,51.05
2018-09-21T14:44:40.018Z,51.42
2018-09-21T14:47:05.971Z,51.41
2018-09-21T14:49:32.032Z,50.74
2018-09-21T14:51:57.970Z,51.13
2018-09-21T14:54:23.904Z,51.31
2018-09-21T14:56:49.872Z,50.88
2018-09-21T14:59:15.842Z,50.94
2018-09-21T15:01:41.814Z,51.48
2018-09-21T15:04:07.779Z,50.94
2018-09-21T15:06:33.740Z,50.54
2018-09-21T15:08:59.712Z,50.78
2018-09-21T15:11:25.700Z,50.77
2018-09-21T15:13:51.655Z,50.62
2018-09-21T15:16:17.625Z,50.17
2018-09-21T15:18:43.561Z,50.07
2018-09-21T15:21:09.539Z,50.77
2018-09-21T15:23:35.572Z,50.42
2018-09-21T15:26:01.589Z,50.23
2018-09-21T15:28:27.537Z,50.87
2018-09-21T15:30:53.484Z,50.89
2018-09-21T15:33:19.451Z,50.00
2018-09-21T15:35:45.509Z,50.15
2018-09-21T15:38:11.547Z,50.22
2018-09-21T15:40:37.568Z,50.20
2018-09-21T15:43:03.700Z,50.19
2018-09-21T15:45:29.572Z,49.44
2018-09-21T15:47:55.542Z,50.57
2018-09-21T15:50:21.504Z,50.14
2018-09-21T15:52:47.584Z,49.55
2018-09-21T15:55:13.461Z,49.36
2018-09-21T15:57:39.456Z,49.86
2018-09-21T16:00:05.416Z,50.06
2018-09-21T16:02:31.378Z,49.15
2018-09-21T16:04:57.365Z,49.23
2018-09-21T16:07:23.319Z,49.38
2018-09-21T16:09:49.265Z,49.39
2018-09-21T16:12:15.232Z,49.65
2018-09-21T16:14:41.185Z,49.73
2018-09-21T16:17:07.152Z,49.77
2018-09-21T16:19:33.125Z,49.27
2018-09-21T16:21:59.075Z,48.89
2018-09-21T16:26:50.784Z,49.95
2018-09-21T16:29:16.940Z,49.45
2018-09-21T16:31:43.107Z,49.44
2018-09-21T16:34:09.083Z,49.44
2018-09-21T16:36:35.059Z,49.33
2018-09-21T16:39:01.109Z,48.98
2018-09-21T16:41:27.020Z,48.92
2018-09-21T16:43:53.000Z,48.92
2018-09-21T16:46:18.941Z,49.51
2018-09-21T16:48:44.915Z,49.24
2018-09-21T16:51:10.978Z,49.61
2018-09-21T16:53:36.928Z,48.90
2018-09-21T16:56:02.874Z,48.62
2018-09-21T16:58:28.828Z,49.43
2018-09-21T17:00:54.779Z,49.57
2018-09-21T17:03:20.829Z,49.08
2018-09-21T17:05:46.748Z,48.42
2018-09-21T17:08:12.687Z,49.01
2018-09-21T17:10:38.640Z,48.53
2018-09-21T17:13:04.587Z,48.63
2018-09-21T17:15:30.576Z,49.37
2018-09-21T17:17:56.627Z,48.99
2018-09-21T17:20:22.593Z,49.08
2018-09-21T17:22:48.545Z,48.92
2018-09-21T17:25:14.561Z,48.96
2018-09-21T17:27:40.587Z,48.59
2018-09-21T17:30:06.553Z,48.10
2018-09-21T17:32:32.520Z,48.96
2018-09-21T17:34:58.484Z,48.10
2018-09-21T17:37:24.446Z,48.46
2018-09-21T17:39:50.408Z,47.96
2018-09-21T17:42:16.389Z,48.58
2018-09-21T17:44:42.365Z,48.51
2018-09-21T17:47:08.384Z,49.39
2018-09-21T17:49:34.328Z,48.89
2018-09-21T17:52:00.276Z,47.78
2018-09-21T17:54:26.283Z,47.89
2018-09-21T17:56:52.228Z,47.85
2018-09-21T17:59:18.203Z,48.51
2018-09-21T18:01:44.344Z,47.83
2018-09-21T18:04:10.380Z,48.19
2018-09-21T18:06:36.348Z,48.83
2018-09-21T18:09:02.373Z,48.65
2018-09-21T18:11:28.377Z,47.78
2018-09-21T18:13:54.342Z,48.50
2018-09-21T18:16:20.293Z,48.19
2018-09-21T18:18:46.389Z,47.76
2018-09-21T18:21:12.360Z,47.89
2018-09-21T18:23:38.327Z,48.20
2018-09-21T18:26:04.379Z,47.72
2018-09-21T18:28:30.410Z,48.22
2018-09-21T18:30:56.384Z,47.79
2018-09-21T18:33:22.344Z,48.65
2018-09-21T18:35:48.329Z,48.11
2018-09-21T18:38:14.280Z,47.91
2018-09-21T18:40:40.267Z,48.44
2018-09-21T18:43:06.403Z,48.45
2018-09-21T18:45:32.471Z,48.25
2018-09-21T18:47:58.438Z,48.08
2018-09-21T18:50:24.497Z,48.09
2018-09-21T18:52:50.503Z,47.54
2018-09-21T18:55:16.445Z,48.16
2018-09-21T18:57:42.462Z,47.90
2018-09-21T19:00:08.692Z,48.50
2018-09-21T19:02:34.697Z,48.34
2018-09-21T19:05:00.958Z,47.27
2018-09-21T19:07:26.959Z,46.96
2018-09-21T19:09:53.230Z,47.43
2018-09-21T19:12:19.239Z,47.79
2018-09-21T19:14:45.688Z,47.26
2018-09-21T19:17:11.997Z,47.17
2018-09-21T19:19:38.086Z,47.45
2018-09-21T19:22:04.491Z,47.06
2018-09-21T19:24:30.910Z,47.36
2018-09-21T19:26:57.369Z,46.95
2018-09-21T19:29:23.626Z,47.35
2018-09-21T19:31:50.044Z,47.42
2018-09-21T19:34:16.377Z,47.10
2018-09-21T19:36:42.725Z,46.76
2018-09-21T19:39:08.803Z,46.40
2018-09-21T19:41:34.776Z,46.76
2018-09-21T19:44:00.733Z,47.12
2018-09-21T19:46:26.740Z,46.91
2018-09-21T19:48:52.713Z,46.71
2018-09-21T19:51:18.671Z,47.00
2018-09-21T19:53:44.645Z,46.72
2018-09-21T19:56:10.612Z,46.55
2018-09-21T19:58:36.593Z,47.37
2018-09-21T20:01:02.583Z,46.84
2018-09-21T20:03:28.576Z,46.42
2018-09-21T20:05:54.597Z,46.78
2018-09-21T20:08:20.557Z,47.06
2018-09-21T20:10:46.591Z,47.65
2018-09-21T20:13:12.542Z,47.06
2018-09-21T20:15:38.614Z,47.41
2018-09-21T20:18:04.563Z,46.96
2018-09-21T20:20:30.508Z,46.99
2018-09-21T20:22:56.592Z,47.58
2018-09-21T20:25:22.581Z,47.46
2018-09-21T20:27:48.507Z,47.56
2018-09-21T20:30:14.527Z,48.05
2018-09-21T20:32:40.492Z,49.11
2018-09-21T20:35:06.444Z,47.70
2018-09-21T20:37:32.403Z,48.19
2018-09-21T20:39:58.360Z,48.70
2018-09-21T20:42:24.345Z,47.88
2018-09-21T20:44:50.351Z,47.87
2018-09-21T20:47:16.256Z,47.84
2018-09-21T20:49:42.216Z,48.26
2018-09-21T20:52:08.164Z,47.89
2018-09-21T20:54:34.205Z,48.94
2018-09-21T20:57:00.153Z,47.66
2018-09-21T20:59:26.204Z,47.41
2018-09-21T21:01:52.081Z,48.24
2018-09-21T21:04:18.031Z,47.74
2018-09-21T21:06:44.173Z,48.36
2018-09-21T21:09:10.144Z,47.09
2018-09-21T21:11:36.182Z,47.83
2018-09-21T21:14:02.240Z,47.60
2018-09-21T21:16:28.428Z,47.56
2018-09-21T21:18:54.436Z,47.09
2018-09-21T21:21:20.392Z,47.94
2018-09-21T21:23:46.432Z,47.36
2018-09-21T21:26:12.395Z,47.04
2018-09-21T21:28:38.353Z,47.67
2018-09-21T21:31:04.299Z,47.68
2018-09-21T21:33:30.277Z,47.31
2018-09-21T21:35:56.267Z,47.42
2018-09-21T21:38:22.245Z,47.44
2018-09-21T21:40:48.263Z,47.15
2018-09-21T21:43:14.239Z,47.51
2018-09-21T21:45:40.288Z,47.17
2018-09-21T21:48:06.304Z,47.55
2018-09-21T21:50:32.248Z,47.67
2018-09-21T21:52:58.203Z,46.96
2018-09-21T21:55:24.198Z,47.25
2018-09-21T21:57:50.151Z,47.79
2018-09-21T22:00:16.103Z,47.23
2018-09-21T22:02:42.090Z,47.55
2018-09-21T22:05:08.033Z,47.88
2018-09-21T22:07:33.982Z,47.13
2018-09-21T22:09:59.944Z,48.14
2018-09-21T22:12:25.887Z,47.85
2018-09-21T22:14:52.267Z,47.59
2018-09-21T22:17:18.206Z,47.27
2018-09-21T22:19:44.153Z,47.47
2018-09-21T22:22:10.117Z,47.06
2018-09-21T22:24:36.057Z,47.41
2018-09-21T22:27:02.034Z,47.85
2018-09-21T22:29:27.989Z,47.59
2018-09-21T22:31:54.012Z,47.76
2018-09-21T22:34:19.970Z,47.62
2018-09-21T22:36:45.922Z,47.85
2018-09-21T22:39:11.880Z,48.13
2018-09-21T22:41:38.077Z,47.32
2018-09-21T22:44:04.033Z,47.28
2018-09-21T22:46:29.999Z,46.98
2018-09-21T22:48:55.971Z,47.82
2018-09-21T22:51:21.927Z,47.81
2018-09-21T22:53:47.892Z,47.12
2018-09-21T22:56:13.835Z,47.76
2018-09-21T22:58:39.795Z,47.76
2018-09-21T23:01:05.767Z,47.26
2018-09-21T23:03:31.712Z,47.17
2018-09-21T23:05:57.663Z,47.61
2018-09-21T23:08:23.620Z,47.77
2018-09-21T23:10:49.600Z,47.51
2018-09-21T23:13:15.560Z,47.71
2018-09-21T23:15:41.516Z,47.26
2018-09-21T23:18:07.452Z,47.31
2018-09-21T23:20:33.401Z,47.56
2018-09-21T23:22:59.427Z,47.73
2018-09-21T23:25:25.405Z,47.97
2018-09-21T23:27:51.347Z,48.04
2018-09-21T23:30:17.312Z,47.76
2018-09-21T23:32:43.223Z,47.34
2018-09-21T23:35:09.176Z,47.23
2018-09-21T23:37:35.145Z,47.51
2018-09-21T23:40:01.092Z,47.78
2018-09-21T23:42:27.123Z,47.45
2018-09-21T23:44:53.076Z,47.71
2018-09-21T23:47:19.044Z,47.83
2018-09-21T23:49:45.008Z,47.32
2018-09-21T23:52:11.006Z,47.69
2018-09-21T23:54:36.955Z,46.98
2018-09-21T23:57:02.887Z,47.19
2018-09-21T23:59:28.850Z,47.53
